Time;durP1;ratioP1;P1;durP2;ratioP2;P2;SDS_P1;SDS_P2;PMS_P1;PMS_P2;Temp;Humidity;BMP_temperature;BMP_pressure;BME280_temperature;BME280_humidity;BME280_pressure;Samples;Min_cycle;Max_cycle;Signal;HPM_P1;HPM_P2
2022/06/11 00:02:26;;;;;;;5.83;3.80;;;;;;;9.07;75.93;100158.48;1759404;80;21514;-62
2022/06/11 00:04:52;;;;;;;10.27;5.37;;;;;;;9.02;75.91;100165.64;1755248;80;21052;-61
2022/06/11 00:07:22;;;;;;;5.00;2.67;;;;;;;8.93;75.97;100156.38;1760773;80;21015;-62
2022/06/11 00:09:51;;;;;;;5.70;3.60;;;;;;;8.88;76.00;100160.04;1755959;80;21096;-62
2022/06/11 00:12:19;;;;;;;9.18;3.83;;;;;;;8.82;76.13;100160.22;1757815;79;20922;-61
2022/06/11 00:14:47;;;;;;;6.78;3.92;;;;;;;8.79;76.25;100152.05;1753899;80;21646;-61
2022/06/11 00:17:17;;;;;;;6.53;4.12;;;;;;;8.79;76.44;100159.02;1756879;79;20939;-61
2022/06/11 00:19:45;;;;;;;5.37;4.12;;;;;;;8.77;76.43;100156.94;1751568;79;20955;-61
2022/06/11 00:22:13;;;;;;;8.95;4.83;;;;;;;8.77;76.55;100160.84;1757654;80;21055;-61
2022/06/11 00:24:40;;;;;;;7.70;3.85;;;;;;;8.75;76.65;100154.38;1747289;79;21106;-61
2022/06/11 00:27:07;;;;;;;3.05;2.80;;;;;;;8.71;76.64;100153.63;1732490;82;20914;-62
2022/06/11 00:29:36;;;;;;;6.08;3.22;;;;;;;8.67;76.52;100152.02;1723278;82;20963;-62
2022/06/11 00:32:06;;;;;;;4.92;4.00;;;;;;;8.63;76.83;100153.03;1731081;82;20939;-62
2022/06/11 00:34:33;;;;;;;5.62;3.75;;;;;;;8.58;76.82;100152.32;1730308;82;21034;-62
2022/06/11 00:37:00;;;;;;;7.37;3.93;;;;;;;8.51;76.76;100150.80;1730031;82;21034;-62
2022/06/11 00:39:32;;;;;;;4.67;3.02;;;;;;;8.41;76.79;100150.25;1687644;83;26444;-62
2022/06/11 00:42:03;;;;;;;10.15;4.37;;;;;;;8.32;76.79;100152.24;1670337;85;21017;-61
2022/06/11 00:44:30;;;;;;;8.25;4.47;;;;;;;8.25;76.77;100156.34;1727983;82;20947;-62
2022/06/11 00:47:19;;;;;;;4.80;3.55;;;;;;;8.16;77.07;100157.93;1729996;82;21185;-62
2022/06/11 00:49:51;;;;;;;9.93;4.22;;;;;;;8.10;77.18;100154.22;1729042;82;21446;-61
2022/06/11 00:52:41;;;;;;;6.97;3.80;;;;;;;8.06;77.32;100148.69;1731316;82;20975;-62
2022/06/11 00:55:16;;;;;;;6.33;4.22;;;;;;;8.06;77.51;100151.30;1733660;82;20971;-62
2022/06/11 00:57:53;;;;;;;6.62;4.00;;;;;;;8.01;77.46;100151.45;1732186;82;21015;-62
2022/06/11 01:00:28;;;;;;;5.22;3.85;;;;;;;7.98;77.50;100145.47;1731284;80;21052;-61
2022/06/11 01:02:57;;;;;;;6.28;3.87;;;;;;;7.93;77.64;100147.38;1732088;82;20880;-62
2022/06/11 01:05:29;;;;;;;6.03;4.40;;;;;;;7.88;77.65;100140.16;1731703;81;20939;-61
2022/06/11 01:08:37;;;;;;;5.42;3.80;;;;;;;7.83;77.71;100137.23;1731462;80;20943;-61
2022/06/11 01:11:30;;;;;;;6.53;4.12;;;;;;;7.81;77.84;100138.16;1731657;82;21046;-62
2022/06/11 01:14:26;;;;;;;5.97;4.62;;;;;;;7.76;77.95;100142.22;1719932;82;21469;-62
2022/06/11 01:17:19;;;;;;;6.12;3.80;;;;;;;7.70;77.90;100150.20;1729775;82;20907;-61
2022/06/11 01:20:16;;;;;;;6.12;3.90;;;;;;;7.64;77.90;100146.45;1730784;82;20904;-62
2022/06/11 01:23:09;;;;;;;8.78;4.40;;;;;;;7.57;77.95;100150.98;1731702;82;20880;-61
2022/06/11 01:25:59;;;;;;;9.55;4.40;;;;;;;7.52;78.11;100144.20;1726758;81;20990;-61
2022/06/11 01:28:46;;;;;;;7.95;4.42;;;;;;;7.48;78.18;100142.58;1728555;81;21078;-62
2022/06/11 01:31:35;;;;;;;8.03;3.98;;;;;;;7.43;78.27;100144.47;1733376;81;28892;-61
2022/06/11 01:34:29;;;;;;;4.53;3.30;;;;;;;7.35;78.16;100140.33;1714546;82;21009;-61
2022/06/11 01:37:03;;;;;;;5.17;3.17;;;;;;;7.25;78.22;100133.66;1724427;81;21421;-61
2022/06/11 01:39:50;;;;;;;4.80;3.40;;;;;;;7.17;78.21;100136.49;1736040;81;21458;-62
2022/06/11 01:42:43;;;;;;;7.22;4.05;;;;;;;7.11;78.35;100139.67;1732981;82;21125;-61
2022/06/11 01:45:21;;;;;;;5.60;3.92;;;;;;;7.10;78.52;100147.08;1729972;81;20941;-62
2022/06/11 01:47:49;;;;;;;6.83;3.55;;;;;;;7.10;78.79;100140.13;1736622;81;20913;-62
2022/06/11 01:50:22;;;;;;;5.20;4.05;;;;;;;7.12;78.77;100150.49;1734942;81;21104;-61
2022/06/11 01:53:00;;;;;;;5.65;3.75;;;;;;;7.13;78.81;100158.67;1746534;81;21513;-62
2022/06/11 01:56:12;;;;;;;7.47;3.77;;;;;;;7.12;78.84;100155.69;1721445;81;21065;-62
2022/06/11 01:59:08;;;;;;;7.15;4.08;;;;;;;7.13;78.94;100163.88;1742873;80;21439;-61
2022/06/11 02:02:08;;;;;;;6.22;4.10;;;;;;;7.13;78.98;100156.08;1723412;81;20905;-62
2022/06/11 02:04:54;;;;;;;9.40;3.98;;;;;;;7.10;78.97;100156.16;1737113;81;21002;-61
2022/06/11 02:07:26;;;;;;;8.23;4.00;;;;;;;7.09;79.07;100159.66;1726914;81;21005;-62
2022/06/11 02:10:19;;;;;;;3.87;3.02;;;;;;;7.08;79.09;100160.08;1730388;80;21571;-62
2022/06/11 02:13:05;;;;;;;7.75;3.55;;;;;;;7.05;79.11;100164.52;1729044;81;21448;-61
2022/06/11 02:15:43;;;;;;;6.62;3.87;;;;;;;7.04;79.29;100161.52;1709542;82;20985;-61
2022/06/11 02:18:17;;;;;;;4.78;3.30;;;;;;;7.05;79.28;100172.30;1676406;84;21055;-61
2022/06/11 02:20:49;;;;;;;4.80;3.75;;;;;;;7.03;79.27;100173.66;1663771;84;21056;-61
2022/06/11 02:23:21;;;;;;;5.33;3.75;;;;;;;7.00;79.30;100175.45;1681279;84;21995;-61
2022/06/11 02:25:53;;;;;;;6.25;3.95;;;;;;;7.01;79.40;100174.59;1687612;83;20952;-61
2022/06/11 02:28:28;;;;;;;6.22;4.45;;;;;;;7.04;79.58;100180.99;1672354;85;20980;-61
2022/06/11 02:30:58;;;;;;;7.45;4.30;;;;;;;7.01;80.21;100178.48;1691486;83;20907;-61
2022/06/11 02:33:25;;;;;;;7.03;5.20;;;;;;;7.09;80.36;100177.84;1695669;83;20963;-61
2022/06/11 02:36:12;;;;;;;12.18;5.28;;;;;;;7.21;80.40;100180.11;1696329;83;21077;-62
2022/06/11 02:38:39;;;;;;;10.43;5.20;;;;;;;7.33;80.66;100178.47;1669214;83;21992;-62
2022/06/11 02:41:10;;;;;;;;;;;;;;;7.47;80.77;100179.86;1673286;85;20966;-61
2022/06/11 02:43:37;;;;;;;8.23;5.12;;;;;;;7.78;81.34;100183.75;1699879;83;20301;-61
2022/06/11 02:48:51;;;;;;;4.75;3.05;;;;;;;9.15;80.94;100196.01;1696531;83;21003;-62
2022/06/11 02:51:21;;;;;;;5.28;2.77;;;;;;;9.88;80.45;100187.80;1694572;83;21486;-62
2022/06/11 02:53:48;;;;;;;6.25;3.37;;;;;;;10.61;80.31;100186.77;1675377;85;20957;-62
2022/06/11 02:56:14;;;;;;;5.47;3.02;;;;;;;11.34;79.93;100186.34;1697032;83;20934;-62
2022/06/11 02:58:43;;;;;;;2.97;2.60;;;;;;;12.04;79.60;100182.83;1676174;85;21023;-62
2022/06/11 03:01:09;;;;;;;3.42;2.30;;;;;;;12.79;79.51;100184.50;1669929;85;21057;-62
2022/06/11 03:03:36;;;;;;;3.55;2.20;;;;;;;13.49;78.46;100184.06;1692666;83;20931;-62
2022/06/11 03:06:04;;;;;;;4.05;2.72;;;;;;;14.04;78.10;100187.70;1693969;83;26357;-63
2022/06/11 03:08:32;;;;;;;4.22;2.50;;;;;;;14.60;77.54;100192.58;1696397;83;20971;-62
2022/06/11 03:10:59;;;;;;;6.25;2.20;;;;;;;15.08;77.13;100184.11;1675754;85;21133;-62
2022/06/11 03:13:28;;;;;;;4.78;1.95;;;;;;;15.48;76.39;100184.38;1694200;83;21988;-62
2022/06/11 03:15:55;;;;;;;3.45;1.80;;;;;;;15.81;76.09;100186.77;1700738;83;20924;-62
2022/06/11 03:18:22;;;;;;;5.67;2.22;;;;;;;16.14;75.92;100189.09;1690766;83;20960;-63
2022/06/11 03:20:53;;;;;;;3.15;2.00;;;;;;;16.29;75.50;100186.80;1695711;83;21040;-63
2022/06/11 03:23:22;;;;;;;5.62;2.45;;;;;;;16.75;75.67;100186.95;1670023;85;21060;-62
2022/06/11 03:25:49;;;;;;;6.40;2.17;;;;;;;17.31;75.52;100186.77;1731139;81;21132;-63
2022/06/11 03:28:23;;;;;;;6.05;2.08;;;;;;;17.82;75.01;100186.81;1740017;81;21473;-63
2022/06/11 03:30:51;;;;;;;5.00;2.25;;;;;;;18.44;75.09;100184.13;1742245;81;20870;-63
2022/06/11 03:33:19;;;;;;;6.83;2.75;;;;;;;19.27;75.49;100187.27;1740897;81;20906;-63
2022/06/11 03:35:46;;;;;;;5.62;3.02;;;;;;;20.09;74.52;100182.64;1740715;81;21008;-63
2022/06/11 03:38:13;;;;;;;5.10;2.60;;;;;;;20.73;73.90;100186.39;1742865;81;21101;-64
2022/06/11 03:40:40;;;;;;;6.15;2.72;;;;;;;21.22;72.52;100187.59;1740731;81;20983;-63
2022/06/11 03:43:07;;;;;;;5.85;2.45;;;;;;;21.60;72.17;100188.35;1748256;81;21597;-63
2022/06/11 03:45:34;;;;;;;3.45;1.87;;;;;;;21.94;71.85;100190.73;1745791;81;21452;-63
2022/06/11 03:48:01;;;;;;;11.45;2.50;;;;;;;22.10;71.23;100191.08;1737219;81;20910;-63
2022/06/11 03:50:33;;;;;;;5.78;2.30;;;;;;;22.45;70.98;100199.09;1722169;81;21103;-64
2022/06/11 03:53:01;;;;;;;6.33;2.10;;;;;;;22.64;70.02;100196.96;1744116;81;20993;-63
2022/06/11 03:55:28;;;;;;;5.33;2.10;;;;;;;22.90;69.54;100198.58;1735383;81;20951;-63
2022/06/11 03:57:56;;;;;;;4.08;2.00;;;;;;;23.17;69.01;100197.06;1743800;81;21423;-64
2022/06/11 04:03:14;;;;;;;4.97;1.90;;;;;;;23.70;68.04;100200.52;1736104;81;21223;-63
2022/06/11 04:05:43;;;;;;;5.75;2.52;;;;;;;23.96;67.15;100195.39;1726710;81;20957;-63
2022/06/11 04:08:11;;;;;;;5.42;1.98;;;;;;;24.20;66.46;100194.86;1737658;81;21423;-63
2022/06/11 04:10:38;;;;;;;4.78;2.37;;;;;;;24.35;66.81;100193.36;1730741;81;21523;-63
2022/06/11 04:13:08;;;;;;;4.67;1.98;;;;;;;24.68;65.84;100187.06;1726938;81;20898;-63
2022/06/11 04:15:36;;;;;;;10.32;2.30;;;;;;;24.94;65.28;100188.95;1732213;81;21258;-62
2022/06/11 04:18:04;;;;;;;6.35;2.37;;;;;;;25.22;64.97;100186.54;1732186;81;20954;-63
2022/06/11 04:20:32;;;;;;;5.10;2.10;;;;;;;25.54;64.53;100186.91;1735690;81;20988;-63
2022/06/11 04:23:00;;;;;;;5.53;2.08;;;;;;;25.99;64.31;100189.37;1716887;81;20963;-63
2022/06/11 04:25:27;;;;;;;9.05;2.02;;;;;;;26.31;63.16;100198.51;1713336;81;20972;-63
2022/06/11 04:27:54;;;;;;;5.05;1.95;;;;;;;26.62;63.39;100191.25;1750493;79;21060;-63
2022/06/11 04:30:25;;;;;;;6.10;2.15;;;;;;;27.26;62.90;100185.61;1747499;80;21610;-63
2022/06/11 04:32:52;;;;;;;7.20;2.15;;;;;;;27.71;62.06;100186.84;1746412;80;22332;-63
2022/06/11 04:35:19;;;;;;;8.68;2.40;;;;;;;28.01;61.20;100183.09;1743815;79;20984;-64
2022/06/11 04:37:46;;;;;;;8.83;2.55;;;;;;;28.17;60.20;100188.36;1751801;80;21000;-63
2022/06/11 04:40:17;;;;;;;8.38;1.90;;;;;;;28.40;60.13;100182.20;1749042;80;21209;-63
2022/06/11 04:42:43;;;;;;;6.08;2.40;;;;;;;28.72;59.07;100184.70;1744157;80;20929;-63
2022/06/11 04:45:12;;;;;;;7.47;2.85;;;;;;;28.83;58.68;100175.91;1748596;80;20897;-64
2022/06/11 04:47:51;;;;;;;9.88;2.25;;;;;;;29.39;59.08;100177.78;1746338;79;20933;-64
2022/06/11 04:50:23;;;;;;;5.10;1.90;;;;;;;30.02;57.99;100177.73;1756841;79;20953;-63
2022/06/11 04:52:49;;;;;;;7.00;2.33;;;;;;;30.32;57.56;100186.63;1758939;80;21079;-63
2022/06/11 04:55:17;;;;;;;10.68;2.30;;;;;;;30.34;55.91;100181.06;1751599;80;21400;-63
2022/06/11 04:57:45;;;;;;;8.50;2.55;;;;;;;30.03;55.33;100180.77;1752542;80;20897;-64
2022/06/11 05:00:20;;;;;;;5.78;2.20;;;;;;;30.01;54.76;100181.47;1740863;80;20903;-64
2022/06/11 05:02:48;;;;;;;5.10;2.33;;;;;;;30.35;54.86;100188.11;1754732;80;22888;-64
2022/06/11 05:05:15;;;;;;;10.68;2.45;;;;;;;30.76;53.65;100184.81;1748556;80;21129;-64
2022/06/11 05:07:44;;;;;;;6.35;2.15;;;;;;;30.79;52.83;100188.47;1753166;80;20898;-64
2022/06/11 05:10:14;;;;;;;6.65;2.17;;;;;;;30.84;52.34;100192.81;1753525;80;21044;-64
2022/06/11 05:12:41;;;;;;;4.92;1.92;;;;;;;31.10;52.47;100190.02;1743736;80;20983;-63
2022/06/11 05:15:09;;;;;;;5.60;1.77;;;;;;;31.78;51.40;100197.88;1754964;79;20903;-63
2022/06/11 05:17:36;;;;;;;5.62;2.00;;;;;;;31.87;51.25;100193.14;1756290;80;20975;-62
2022/06/11 05:20:05;;;;;;;11.28;1.95;;;;;;;32.20;49.98;100190.62;1752634;80;20992;-62
2022/06/11 05:22:32;;;;;;;4.78;1.82;;;;;;;32.21;49.38;100193.66;1753228;80;21719;-63
2022/06/11 05:24:59;;;;;;;7.15;2.20;;;;;;;32.36;48.99;100188.61;1753617;79;21028;-63
2022/06/11 05:27:26;;;;;;;7.37;1.90;;;;;;;32.56;48.83;100197.62;1748226;80;21000;-63
2022/06/11 05:30:02;;;;;;;14.95;2.58;;;;;;;33.02;48.49;100190.09;1741150;81;21982;-64
2022/06/11 05:32:33;;;;;;;11.75;2.47;;;;;;;33.23;47.03;100192.30;1734972;81;21050;-63
2022/06/11 05:35:03;;;;;;;8.18;1.92;;;;;;;33.33;46.87;100193.55;1736307;81;21523;-63
2022/06/11 05:37:30;;;;;;;7.47;2.00;;;;;;;33.56;46.01;100193.11;1739916;81;21021;-63
2022/06/11 05:39:58;;;;;;;8.88;2.67;;;;;;;33.63;45.56;100191.20;1736276;81;20920;-63
2022/06/11 05:42:26;;;;;;;7.47;2.15;;;;;;;33.36;44.42;100196.35;1737710;81;20968;-64
2022/06/11 05:44:53;;;;;;;4.85;1.95;;;;;;;32.78;44.04;100193.41;1744881;80;20872;-63
2022/06/11 05:47:44;;;;;;;6.08;2.22;;;;;;;32.68;43.81;100200.55;1739495;81;21012;-62
2022/06/11 05:50:05;;;;;;;6.92;1.90;;;;;;;32.61;43.15;100201.90;1731635;81;21022;-62
2022/06/11 05:52:37;;;;;;;6.55;1.67;;;;;;;31.99;41.60;100198.86;1737899;81;20927;-63
2022/06/11 05:55:06;;;;;;;4.40;1.57;;;;;;;31.57;41.83;100200.67;1739204;81;22660;-63
2022/06/11 05:57:33;;;;;;;4.72;1.92;;;;;;;31.60;41.80;100207.02;1742877;81;20941;-63
2022/06/11 06:00:05;;;;;;;7.20;1.87;;;;;;;31.39;40.91;100207.91;1739856;81;20915;-63
2022/06/11 06:02:32;;;;;;;4.78;1.55;;;;;;;31.39;40.80;100203.34;1739321;81;22328;-63
2022/06/11 06:04:58;;;;;;;5.33;2.00;;;;;;;31.09;39.95;100205.86;1738885;81;20915;-62
2022/06/11 06:07:25;;;;;;;4.20;1.57;;;;;;;30.34;39.12;100205.31;1739327;81;21445;-63
2022/06/11 06:09:52;;;;;;;8.03;1.70;;;;;;;29.90;39.27;100204.82;1737879;80;20895;-63
2022/06/11 06:12:20;;;;;;;7.67;2.30;;;;;;;29.78;39.51;100203.63;1738554;81;20991;-63
2022/06/11 06:14:47;;;;;;;4.70;1.75;;;;;;;29.74;39.20;100207.18;1733596;81;20994;-63
2022/06/11 06:17:13;;;;;;;6.55;1.77;;;;;;;29.95;39.67;100214.53;1738143;81;21817;-63
2022/06/11 06:19:40;;;;;;;8.58;1.60;;;;;;;30.16;39.25;100211.05;1739253;81;21204;-63
2022/06/11 06:22:07;;;;;;;4.97;1.47;;;;;;;30.62;39.56;100215.36;1739820;81;20887;-63
2022/06/11 06:24:34;;;;;;;3.92;1.20;;;;;;;30.88;39.18;100210.25;1739593;81;21028;-63
2022/06/11 06:27:01;;;;;;;8.80;1.50;;;;;;;30.87;38.83;100207.25;1743416;80;21000;-63
2022/06/11 06:29:28;;;;;;;5.60;2.05;;;;;;;30.94;38.78;100195.99;1756230;80;20973;-63
2022/06/11 06:31:55;;;;;;;4.62;1.80;;;;;;;30.93;38.86;100190.30;1756271;80;21012;-63
2022/06/11 06:34:22;;;;;;;4.87;1.80;;;;;;;31.03;38.71;100195.86;1759696;79;20873;-64
2022/06/11 06:36:48;;;;;;;7.45;2.12;;;;;;;31.27;38.71;100190.56;1748346;80;20942;-63
2022/06/11 06:39:16;;;;;;;5.87;2.00;;;;;;;31.41;38.34;100199.94;1764425;80;20960;-63
2022/06/11 06:41:43;;;;;;;5.85;1.72;;;;;;;31.63;38.61;100191.26;1753841;80;21506;-63
2022/06/11 06:44:10;;;;;;;4.17;1.70;;;;;;;31.75;38.06;100192.87;1754075;80;21032;-64
2022/06/11 06:46:36;;;;;;;4.15;1.80;;;;;;;31.72;37.84;100198.68;1752404;80;20945;-63
2022/06/11 06:49:03;;;;;;;4.85;1.65;;;;;;;31.72;37.40;100195.15;1749020;80;20893;-63
2022/06/11 06:51:30;;;;;;;7.92;2.20;;;;;;;31.64;37.71;100193.44;1755868;80;21491;-63
2022/06/11 06:53:57;;;;;;;6.17;1.92;;;;;;;31.67;37.12;100193.03;1757844;80;20947;-64
2022/06/11 06:56:29;;;;;;;5.47;1.42;;;;;;;31.09;36.49;100189.69;1751494;80;21075;-64
2022/06/11 06:58:52;;;;;;;5.08;1.62;;;;;;;31.04;36.89;100186.77;1753954;80;21484;-65
2022/06/11 07:01:19;;;;;;;4.35;1.65;;;;;;;30.96;36.67;100192.59;1757602;79;21002;-64
2022/06/11 07:03:46;;;;;;;7.10;2.45;;;;;;;30.77;36.49;100194.56;1752592;80;20914;-64
2022/06/11 07:06:13;;;;;;;4.58;1.82;;;;;;;30.77;36.71;100197.26;1756929;80;20910;-64
2022/06/11 07:08:40;;;;;;;4.03;1.50;;;;;;;30.83;36.41;100192.98;1752721;80;21044;-64
2022/06/11 07:11:06;;;;;;;2.83;1.40;;;;;;;30.71;36.42;100196.69;1761929;80;20925;-64
2022/06/11 07:13:35;;;;;;;4.80;1.77;;;;;;;30.75;36.30;100200.65;1752374;80;20952;-64
2022/06/11 07:16:04;;;;;;;5.40;1.70;;;;;;;30.55;36.12;100197.23;1758604;80;20938;-63
2022/06/11 07:18:36;;;;;;;3.37;1.42;;;;;;;30.50;35.78;100202.39;1755864;80;21468;-63
2022/06/11 07:21:06;;;;;;;7.40;1.62;;;;;;;30.04;35.38;100199.94;1759289;79;21099;-63
2022/06/11 07:23:40;;;;;;;6.12;2.10;;;;;;;29.52;35.35;100199.52;1754376;80;21552;-64
2022/06/11 07:26:12;;;;;;;4.33;1.55;;;;;;;29.25;35.65;100198.77;1759780;80;20937;-63
2022/06/11 07:28:44;;;;;;;6.42;1.60;;;;;;;29.30;35.95;100210.66;1761134;80;20909;-63
2022/06/11 07:31:11;;;;;;;4.85;1.42;;;;;;;29.30;35.40;100203.09;1754327;80;20931;-63
2022/06/11 07:33:41;;;;;;;7.33;1.77;;;;;;;28.58;35.65;100202.94;1755157;80;21757;-63
2022/06/11 07:36:08;;;;;;;6.55;1.65;;;;;;;28.13;35.46;100197.79;1755192;80;20974;-62
2022/06/11 07:38:34;;;;;;;6.80;1.77;;;;;;;27.67;36.08;100196.23;1758729;80;20976;-61
2022/06/11 07:41:02;;;;;;;6.72;1.90;;;;;;;27.56;36.24;100192.57;1753992;80;21424;-63
2022/06/11 07:43:29;;;;;;;4.97;1.57;;;;;;;27.45;36.40;100187.09;1754434;80;21506;-63
2022/06/11 07:45:56;;;;;;;;;;;;;;;27.31;36.15;100187.75;1760812;79;21513;-62
2022/06/11 07:48:22;;;;;;;6.60;1.70;;;;;;;26.88;36.06;100189.77;1760589;80;20115;-62
2022/06/11 07:50:50;;;;;;;;;;;;;;;26.17;36.00;100197.80;1760071;80;21494;-62
2022/06/11 07:53:19;;;;;;;5.10;1.70;;;;;;;25.40;35.71;100199.02;1762196;80;20453;-61
2022/06/11 07:55:49;;;;;;;7.55;1.90;;;;;;;24.58;35.95;100200.13;1758808;80;20938;-62
2022/06/11 07:58:18;;;;;;;16.60;2.17;;;;;;;23.75;36.50;100207.63;1752898;80;21065;-62
2022/06/11 08:00:49;;;;;;;7.15;1.90;;;;;;;23.56;37.33;100201.83;1757480;80;20889;-62
2022/06/11 08:03:18;;;;;;;9.73;2.47;;;;;;;23.83;37.92;100194.88;1763325;80;20919;-62
2022/06/11 08:05:45;;;;;;;7.85;1.82;;;;;;;24.27;38.01;100192.43;1755774;80;21004;-63
2022/06/11 08:08:13;;;;;;;7.87;3.60;;;;;;;24.57;38.31;100191.30;1753790;80;20957;-62
2022/06/11 08:10:42;;;;;;;22.35;5.67;;;;;;;24.90;38.50;100191.58;1756517;80;21122;-62
2022/06/11 08:13:10;;;;;;;15.63;3.85;;;;;;;24.80;38.34;100197.02;1753526;80;20962;-63
2022/06/11 08:15:39;;;;;;;15.88;1.82;;;;;;;24.65;38.68;100191.38;1762372;79;20925;-61
2022/06/11 08:18:07;;;;;;;10.23;1.90;;;;;;;24.76;39.00;100191.15;1755085;80;20923;-61
2022/06/11 08:20:36;;;;;;;5.75;1.42;;;;;;;24.98;39.16;100191.66;1756297;80;21457;-64
2022/06/11 08:23:05;;;;;;;9.23;1.65;;;;;;;25.16;39.31;100187.17;1747665;80;21038;-63
2022/06/11 08:25:32;;;;;;;8.35;1.80;;;;;;;25.22;39.38;100183.87;1750358;80;20903;-62
2022/06/11 08:27:59;;;;;;;12.15;1.82;;;;;;;25.27;39.24;100189.26;1756679;80;21593;-63
2022/06/11 08:30:29;;;;;;;5.10;1.77;;;;;;;25.02;39.09;100195.70;1753966;80;20886;-63
2022/06/11 08:32:56;;;;;;;9.73;1.52;;;;;;;24.99;39.73;100190.67;1761342;80;21475;-63
2022/06/11 08:35:26;;;;;;;6.42;1.62;;;;;;;25.26;39.83;100183.55;1759488;80;21062;-63
2022/06/11 08:37:53;;;;;;;4.42;1.45;;;;;;;25.51;39.92;100186.72;1762987;80;21489;-62
2022/06/11 08:40:31;;;;;;;9.30;2.12;;;;;;;25.76;39.51;100184.20;1757825;80;21477;-63
2022/06/11 08:43:26;;;;;;;5.25;1.82;;;;;;;25.74;39.74;100180.84;1746749;80;20988;-63
2022/06/11 08:45:57;;;;;;;9.70;2.08;;;;;;;25.64;39.71;100191.16;1754595;80;21523;-63
2022/06/11 08:48:45;;;;;;;7.50;2.00;;;;;;;25.95;39.91;100185.33;1753877;80;20998;-62
2022/06/11 08:51:39;;;;;;;8.98;1.92;;;;;;;26.05;39.91;100189.23;1753418;80;20850;-63
2022/06/11 08:54:11;;;;;;;3.92;1.20;;;;;;;26.04;39.93;100189.70;1762716;80;21442;-63
2022/06/11 08:57:00;;;;;;;14.95;1.95;;;;;;;26.62;40.20;100184.55;1756820;80;20933;-63
2022/06/11 08:59:52;;;;;;;7.53;1.90;;;;;;;27.03;40.22;100188.10;1758865;80;21505;-63
2022/06/11 09:03:12;;;;;;;8.13;1.87;;;;;;;27.06;39.69;100187.77;1756261;80;21050;-63
2022/06/11 09:06:10;;;;;;;7.12;2.25;;;;;;;26.51;39.62;100186.53;1758438;80;20924;-63
2022/06/11 09:09:11;;;;;;;8.60;1.67;;;;;;;26.48;39.94;100189.52;1752390;80;21457;-63
2022/06/11 09:12:03;;;;;;;19.37;3.17;;;;;;;26.61;39.89;100192.23;1759736;80;20909;-62
2022/06/11 09:14:56;;;;;;;6.87;2.12;;;;;;;26.64;39.80;100191.42;1760888;79;20966;-63
2022/06/11 09:17:56;;;;;;;10.03;2.25;;;;;;;26.80;39.89;100187.91;1756400;79;22402;-63
2022/06/11 09:20:43;;;;;;;8.10;1.42;;;;;;;26.81;39.79;100189.59;1761559;80;20899;-63
2022/06/11 09:23:27;;;;;;;21.17;6.87;;;;;;;26.69;39.70;100185.55;1757263;79;20899;-63
2022/06/11 09:26:19;;;;;;;37.00;4.72;;;;;;;26.61;39.61;100185.53;1748394;80;20933;-63
2022/06/11 09:29:20;;;;;;;9.95;2.20;;;;;;;26.48;39.70;100177.46;1736766;80;20974;-62
2022/06/11 09:32:04;;;;;;;7.67;1.72;;;;;;;26.33;39.57;100180.45;1657271;85;21997;-62
2022/06/11 09:34:51;;;;;;;6.05;2.05;;;;;;;26.10;39.39;100179.72;1655365;85;21401;-63
2022/06/11 09:37:38;;;;;;;10.90;2.40;;;;;;;26.00;39.78;100169.63;1659292;85;21528;-63
2022/06/11 09:40:25;;;;;;;17.40;1.95;;;;;;;26.21;39.72;100163.00;1658650;85;21586;-63
2022/06/11 09:43:03;;;;;;;7.30;1.87;;;;;;;26.16;39.54;100154.62;1659001;85;20900;-62
2022/06/11 09:45:38;;;;;;;6.75;2.17;;;;;;;26.01;39.61;100152.57;1661821;85;21445;-62
2022/06/11 09:48:22;;;;;;;4.90;2.65;;;;;;;25.88;39.70;100154.88;1660008;85;21484;-61
2022/06/11 09:51:16;;;;;;;5.17;1.55;;;;;;;26.02;39.96;100155.60;1658254;85;21452;-62
2022/06/11 09:54:25;;;;;;;4.85;1.50;;;;;;;26.18;39.89;100148.11;1659115;85;20988;-62
2022/06/11 09:57:11;;;;;;;23.65;2.85;;;;;;;26.35;40.10;100140.95;1660057;85;21046;-63
2022/06/11 09:59:52;;;;;;;18.98;2.60;;;;;;;26.35;39.96;100136.94;1658686;85;21070;-63
2022/06/11 10:04:57;;;;;;;4.08;1.45;;;;;;;26.22;39.60;100135.26;1660613;85;20978;-62
2022/06/11 10:07:31;;;;;;;3.00;1.02;;;;;;;26.32;40.05;100137.27;1660585;85;21488;-62
2022/06/11 10:10:18;;;;;;;4.37;1.20;;;;;;;26.38;39.65;100136.60;1719344;82;21024;-62
2022/06/11 10:13:08;;;;;;;4.25;1.30;;;;;;;26.38;39.76;100142.46;1732512;82;21091;-62
2022/06/11 10:15:46;;;;;;;4.08;2.20;;;;;;;26.49;39.67;100143.48;1728725;82;20907;-62
2022/06/11 10:18:20;;;;;;;10.23;1.35;;;;;;;26.58;39.51;100137.66;1686765;83;20929;-62
2022/06/11 10:20:51;;;;;;;5.45;1.22;;;;;;;26.43;39.22;100136.95;1669116;85;21493;-62
2022/06/11 10:23:59;;;;;;;6.55;1.47;;;;;;;26.05;39.14;100134.38;1733321;82;20939;-62
2022/06/11 10:26:36;;;;;;;5.75;1.55;;;;;;;25.60;38.82;100129.65;1734129;82;21065;-63
2022/06/11 10:29:34;;;;;;;2.58;1.02;;;;;;;25.04;39.14;100138.97;1740007;81;20940;-61
2022/06/11 10:32:15;;;;;;;4.35;1.07;;;;;;;25.45;39.49;100133.89;1749295;81;20996;-62
2022/06/11 10:34:47;;;;;;;6.08;1.42;;;;;;;25.92;39.71;100133.98;1740741;81;20939;-62
2022/06/11 10:37:22;;;;;;;4.53;1.35;;;;;;;25.94;38.89;100130.16;1751122;80;20949;-62
2022/06/11 10:40:08;;;;;;;9.80;1.27;;;;;;;26.02;39.57;100130.19;1752253;81;21221;-61
2022/06/11 10:42:48;;;;;;;5.90;1.42;;;;;;;26.36;39.52;100131.11;1743585;81;20953;-61
2022/06/11 10:45:17;;;;;;;4.05;1.62;;;;;;;26.72;39.38;100132.51;1749096;79;21638;-62
2022/06/11 10:47:53;;;;;;;5.92;1.82;;;;;;;27.04;39.43;100125.96;1746206;81;21041;-62
2022/06/11 10:50:33;;;;;;;;;;;;;;;27.31;39.50;100125.61;1744905;81;20999;-62
2022/06/11 10:53:27;;;;;;;8.58;2.25;;;;;;;27.18;38.88;100121.28;1750810;80;21412;-62
2022/06/11 10:56:19;;;;;;;21.20;4.17;;;;;;;27.09;39.06;100122.27;1738411;81;20925;-62
2022/06/11 10:59:08;;;;;;;4.10;2.08;;;;;;;27.30;39.36;100114.53;1750056;80;20902;-62
2022/06/11 11:01:46;;;;;;;5.20;1.67;;;;;;;27.80;39.32;100110.71;1742101;81;21400;-61
2022/06/11 11:04:39;;;;;;;3.30;1.20;;;;;;;28.22;39.43;100114.84;1744199;81;21456;-62
2022/06/11 11:07:11;;;;;;;6.47;1.52;;;;;;;28.52;39.04;100115.02;1754658;81;21054;-62
2022/06/11 11:09:37;;;;;;;2.70;1.22;;;;;;;28.39;38.56;100114.74;1743576;81;20918;-63
2022/06/11 11:12:09;;;;;;;6.65;1.30;;;;;;;28.06;38.66;100112.25;1753864;81;20957;-64
2022/06/11 11:14:41;;;;;;;2.87;0.95;;;;;;;28.22;38.85;100113.50;1752843;81;20972;-63
2022/06/11 11:17:22;;;;;;;2.80;1.10;;;;;;;28.51;38.55;100113.33;1748713;81;20929;-63
2022/06/11 11:22:43;;;;;;;2.83;1.00;;;;;;;28.86;38.00;100113.73;1755553;81;21534;-62
2022/06/11 11:25:18;;;;;;;4.25;1.02;;;;;;;28.65;37.83;100112.57;1757605;80;20867;-63
2022/06/11 11:27:50;;;;;;;3.50;1.15;;;;;;;28.38;37.57;100111.73;1748594;80;20957;-62
2022/06/11 11:30:21;;;;;;;3.80;1.60;;;;;;;28.23;37.63;100107.14;1750460;81;20930;-63
2022/06/11 11:32:48;;;;;;;5.97;1.65;;;;;;;28.22;37.59;100104.11;1752431;80;21340;-63
2022/06/11 11:35:20;;;;;;;3.83;1.27;;;;;;;28.22;37.58;100100.08;1744989;81;21289;-63
2022/06/11 11:38:13;;;;;;;2.92;0.80;;;;;;;28.19;37.33;100100.95;1747798;79;20902;-63
2022/06/11 11:41:01;;;;;;;2.30;0.88;;;;;;;28.02;37.22;100101.55;1753664;81;20990;-62
2022/06/11 11:43:41;;;;;;;3.37;1.00;;;;;;;27.71;37.37;100101.00;1748475;81;20981;-63
2022/06/11 11:46:19;;;;;;;5.28;1.10;;;;;;;27.66;37.30;100098.00;1744136;81;21017;-63
2022/06/11 11:48:58;;;;;;;4.95;1.15;;;;;;;27.35;37.11;100100.12;1746570;80;21016;-63
2022/06/11 11:51:36;;;;;;;2.37;0.90;;;;;;;27.28;37.20;100103.17;1746006;81;21001;-63
2022/06/11 11:54:17;;;;;;;2.83;1.10;;;;;;;27.56;37.23;100097.36;1747803;81;21848;-63
2022/06/11 11:57:00;;;;;;;4.17;1.15;;;;;;;27.67;37.23;100098.32;1736641;79;20938;-63
2022/06/11 11:59:41;;;;;;;4.37;1.32;;;;;;;27.95;36.97;100095.20;1744780;81;21049;-63
2022/06/11 12:02:26;;;;;;;10.03;1.42;;;;;;;27.93;36.92;100083.33;1744971;80;20953;-63
2022/06/11 12:05:03;;;;;;;2.77;1.05;;;;;;;28.20;37.07;100090.02;1754843;81;21436;-63
2022/06/11 12:07:35;;;;;;;2.67;1.00;;;;;;;28.36;36.88;100094.95;1740949;81;20894;-63
2022/06/11 12:10:29;;;;;;;5.53;1.30;;;;;;;28.22;36.72;100089.34;1744532;79;20929;-63
2022/06/11 12:12:57;;;;;;;7.00;1.20;;;;;;;27.97;36.69;100089.99;1743333;81;21049;-63